LOWWLOXT

Guest
Details From LOWW - Wien Schwechat
To LOXT - Tulln
Flight Number -
Tags generated
Created
Modified
Stats Distance 22 nm / 41 km
Max Altitude 0 ft / 0 m
Waypoints 2
Social Downloads 0
Likes 0
Share VATSIM

Download

Looking for another format? Having issues loading an existing format? Contact us
Advertisement - Login to hide

Notes

Basic altitude profile: - Ascent Rate: 2500ft/min - Ascent Speed: 250kts - Cruise Altitude: 35000ft - Cruise Speed: 420kts - Descent Rate: 1500ft/min - Descent Speed: 250kts Options: - Use NATs: yes - Use PACOTS: yes - Use low airways: yes - Use high airways: yes

Route

LOWW LOXT

ID Type Via Altitude Latitude Longitude Leg Dist Tot Dist Heading (true) Name
O LOWW APT - 0 ft / 0 m 48.11007˚ 16.56964˚ - 0 nm - Wien Schwechat
O LOXT APT - 0 ft / 0 m 48.31888˚ 16.11268˚ 22 nm 22 nm 305° / 304° Tulln

Altitude Profile

Advertisement - Login to hide

LOWW

Details ICAO LOWW (VIE)
Name Wien Schwechat
Region Austria
Timezone Europe/Vienna (UTC+1.0)
Stats Elevation 600 ft / 183 m (AMSL)
Location 48.110068° 16.569637°
Runways 2
Magnetic Variation 4.255° E

METAR

LOWW 110550Z 17017KT CAVOK 05/02 Q0993 NOSIG

Decode

TAF

TAF LOWW 110515Z 1106/1212 17020G30KT CAVOK TX12/1122Z TN05/1106Z TEMPO 1109/1112 17025G35KT BECMG 1112/1114 17025G35KT TEMPO 1114/1200 17032G45KT PROB30 TEMPO 1118/1122 17035G50KT BECMG 1200/1202 17020KT FM120500 30010KT 9999 -RA BKN050

Decode

Departure Runways

ID Width Length Bearing (true) Bearing (mag) Surface Threshold Offset Overrun Length
11 148 ft / 45 m 11,457 ft / 3,492 m 115.99° 111.73° Asphalt 0 ft / 0 m 0 ft / 0 m
16 148 ft / 45 m 11,811 ft / 3,600 m 164.23° 159.97° Asphalt 0 ft / 0 m 33 ft / 10 m
29 148 ft / 45 m 11,457 ft / 3,492 m 296.03° 291.77° Asphalt 0 ft / 0 m 0 ft / 0 m
34 148 ft / 45 m 11,811 ft / 3,600 m 344.24° 339.98° Asphalt 0 ft / 0 m 0 ft / 0 m

LOXT

Details ICAO LOXT
Name Tulln
Region Austria
Timezone Europe/Vienna (UTC+1.0)
Stats Elevation 575 ft / 175 m (AMSL)
Location 48.318875° 16.112684°
Runways 4
Magnetic Variation 4.171° E

METAR

LOXT 110550Z 28004KT 25KM FEW050SC BKN280CI M01/M03 Q0992 RMK BKN

Decode

TAF

Not found

Destination Runways

ID Width Length Bearing (true) Bearing (mag) Surface Threshold Offset Overrun Length
05 148 ft / 45 m 3,276 ft / 999 m 50.13° 45.96° Grass 0 ft / 0 m 0 ft / 0 m
08 148 ft / 45 m 4,492 ft / 1,369 m 84.19° 80.02° Asphalt 0 ft / 0 m 0 ft / 0 m
08R 148 ft / 45 m 3,035 ft / 925 m 84.27° 80.10° Grass 0 ft / 0 m 0 ft / 0 m
13 140 ft / 43 m 2,250 ft / 686 m 129.11° 124.94° Grass 0 ft / 0 m 0 ft / 0 m
23 148 ft / 45 m 3,276 ft / 999 m 230.13° 225.96° Grass 0 ft / 0 m 0 ft / 0 m
26 148 ft / 45 m 4,492 ft / 1,369 m 264.21° 260.04° Asphalt 0 ft / 0 m 0 ft / 0 m
26L 148 ft / 45 m 3,035 ft / 925 m 264.27° 260.10° Grass 0 ft / 0 m 0 ft / 0 m
31 140 ft / 43 m 2,250 ft / 686 m 309.11° 304.94° Grass 0 ft / 0 m 0 ft / 0 m